Time;durP1;ratioP1;P1;durP2;ratioP2;P2;SDS_P1;SDS_P2;PMS_P1;PMS_P2;Temp;Humidity;BMP_temperature;BMP_pressure;BME280_temperature;BME280_humidity;BME280_pressure;Samples;Min_cycle;Max_cycle;Signal;HPM_P1;HPM_P2
2023/04/24 00:00:44;;;;;;;0.52;0.35;;;;;;;22.56;37.32;99891.56;5013451;27;96847;-77
2023/04/24 00:03:12;;;;;;;0.50;0.30;;;;;;;22.55;37.26;99884.41;5014822;27;96962;-77
2023/04/24 00:05:40;;;;;;;0.30;0.20;;;;;;;22.55;37.26;99887.16;5019400;27;97048;-77
2023/04/24 00:08:06;;;;;;;0.60;0.30;;;;;;;22.55;37.43;99892.63;5018904;27;96733;-77
2023/04/24 00:10:33;;;;;;;0.50;0.40;;;;;;;22.55;37.26;99886.31;5016496;27;96835;-77
2023/04/24 00:12:59;;;;;;;0.65;0.50;;;;;;;22.54;37.37;99893.66;5020253;27;96712;-77
2023/04/24 00:15:26;;;;;;;0.43;0.40;;;;;;;22.54;37.56;99890.94;5013488;27;96798;-77
2023/04/24 00:17:53;;;;;;;0.50;0.40;;;;;;;22.55;37.09;99892.63;5025774;27;96766;-77
2023/04/24 00:20:21;;;;;;;0.45;0.40;;;;;;;22.55;37.31;99894.50;5015432;27;96889;-77
2023/04/24 00:22:47;;;;;;;0.50;0.40;;;;;;;22.55;37.35;99897.25;5018722;27;96676;-77
2023/04/24 00:25:14;;;;;;;0.40;0.40;;;;;;;22.55;37.68;99897.25;5019981;27;96911;-77
2023/04/24 00:27:40;;;;;;;0.32;0.30;;;;;;;22.54;37.61;99901.88;5019096;27;96984;-77
2023/04/24 00:30:07;;;;;;;0.30;0.20;;;;;;;22.54;37.67;99903.78;5016072;27;99816;-77
2023/04/24 00:32:34;;;;;;;0.32;0.30;;;;;;;22.53;37.27;99897.47;5023277;27;97388;-77
2023/04/24 00:35:00;;;;;;;0.40;0.40;;;;;;;22.54;37.37;99901.03;5020649;27;96997;-77
2023/04/24 00:37:27;;;;;;;0.52;0.45;;;;;;;22.54;37.28;99896.41;5019079;27;97152;-76
2023/04/24 00:39:53;;;;;;;0.60;0.52;;;;;;;22.53;37.20;99900.19;5019611;27;96737;-77
2023/04/24 00:42:20;;;;;;;0.60;0.40;;;;;;;22.53;37.41;99902.94;5019525;27;97266;-77
2023/04/24 00:44:47;;;;;;;0.40;0.40;;;;;;;22.52;37.59;99901.25;5026517;27;96856;-77
2023/04/24 00:47:14;;;;;;;0.45;0.32;;;;;;;22.52;37.39;99904.81;5020772;27;97710;-77
2023/04/24 00:49:40;;;;;;;0.40;0.40;;;;;;;22.53;37.38;99900.19;5018150;27;96663;-76
2023/04/24 00:52:08;;;;;;;0.52;0.40;;;;;;;22.54;37.41;99901.03;5017274;27;96864;-77
2023/04/24 00:54:36;;;;;;;0.40;0.32;;;;;;;22.52;37.20;99903.97;5030480;27;96844;-77
2023/04/24 00:57:03;;;;;;;0.52;0.40;;;;;;;22.52;37.62;99909.47;5021078;27;98726;-77
2023/04/24 00:59:30;;;;;;;0.45;0.40;;;;;;;22.51;37.63;99905.88;5026942;27;97153;-77
2023/04/24 01:01:58;;;;;;;0.45;0.40;;;;;;;22.52;37.34;99906.72;5022363;27;96839;-77
2023/04/24 01:04:26;;;;;;;0.40;0.35;;;;;;;22.52;37.54;99906.72;5025763;27;96907;-77
2023/04/24 01:06:54;;;;;;;0.80;0.50;;;;;;;22.51;37.65;99903.13;5017863;27;99971;-77
2023/04/24 01:09:23;;;;;;;0.40;0.32;;;;;;;22.52;37.33;99903.97;5016929;27;99442;-77
2023/04/24 01:11:50;;;;;;;0.52;0.40;;;;;;;22.51;37.70;99903.13;5024206;27;96665;-77
2023/04/24 01:14:17;;;;;;;0.35;0.30;;;;;;;22.52;37.46;99898.50;5019658;27;96786;-77
2023/04/24 01:16:43;;;;;;;0.50;0.40;;;;;;;22.52;37.42;99901.25;5024531;27;98188;-77
2023/04/24 01:19:11;;;;;;;1.13;0.50;;;;;;;22.52;37.73;99901.25;5025685;27;96800;-77
2023/04/24 01:21:39;;;;;;;0.55;0.40;;;;;;;22.52;37.17;99902.09;5019784;27;96702;-77
2023/04/24 01:24:06;;;;;;;0.70;0.45;;;;;;;22.52;37.54;99901.25;5025266;27;97110;-77
2023/04/24 01:26:33;;;;;;;0.50;0.40;;;;;;;22.52;37.48;99898.50;5021141;27;100014;-77
2023/04/24 01:28:59;;;;;;;0.50;0.40;;;;;;;22.52;37.72;99893.03;5006350;27;99406;-77
2023/04/24 01:31:26;;;;;;;0.60;0.30;;;;;;;22.52;37.38;99896.63;5024265;27;96896;-76
2023/04/24 01:33:54;;;;;;;0.40;0.40;;;;;;;22.53;37.59;99900.19;5025834;27;96653;-77
2023/04/24 01:36:21;;;;;;;0.40;0.40;;;;;;;22.52;37.66;99899.34;5014315;27;97454;-77
2023/04/24 01:38:50;;;;;;;0.82;0.52;;;;;;;22.51;37.59;99892.19;5021772;27;99436;-77
2023/04/24 01:41:18;;;;;;;0.30;0.20;;;;;;;22.52;37.53;99893.88;5018873;27;96789;-77
2023/04/24 01:43:44;;;;;;;0.50;0.40;;;;;;;22.53;37.58;99892.00;5025232;27;96748;-77
2023/04/24 01:46:11;;;;;;;0.60;0.40;;;;;;;22.53;37.37;99897.47;5022015;27;99831;-77
2023/04/24 01:48:37;;;;;;;0.40;0.40;;;;;;;22.53;37.62;99886.50;5024616;27;97471;-77
2023/04/24 01:51:04;;;;;;;0.70;0.30;;;;;;;22.54;37.68;99892.81;5024843;27;96830;-77
2023/04/24 01:53:30;;;;;;;0.40;0.32;;;;;;;22.52;37.31;99888.41;5019480;27;96532;-77
2023/04/24 01:55:57;;;;;;;0.52;0.30;;;;;;;22.53;37.54;99894.72;5022286;27;97946;-77
2023/04/24 01:58:24;;;;;;;0.40;0.40;;;;;;;22.54;37.70;99898.31;5025988;27;97482;-77
2023/04/24 02:00:51;;;;;;;0.82;0.32;;;;;;;22.53;37.41;99900.19;5021062;27;97184;-77
2023/04/24 02:03:17;;;;;;;0.40;0.30;;;;;;;22.54;37.45;99895.56;5026713;27;96721;-77
2023/04/24 02:05:45;;;;;;;0.52;0.40;;;;;;;22.54;37.70;99893.66;5022080;27;97641;-77
2023/04/24 02:08:11;;;;;;;0.80;0.52;;;;;;;22.54;37.70;99898.31;5025265;27;97811;-77
2023/04/24 02:10:38;;;;;;;0.28;0.25;;;;;;;22.54;37.59;99896.41;5019564;27;96685;-77
2023/04/24 02:13:04;;;;;;;0.82;0.30;;;;;;;22.54;37.34;99901.88;5007161;27;97045;-78
2023/04/24 02:15:31;;;;;;;0.50;0.40;;;;;;;22.54;37.45;99893.66;5020275;27;98048;-77
2023/04/24 02:17:57;;;;;;;0.40;0.38;;;;;;;22.55;37.63;99895.34;5018505;27;96995;-78
2023/04/24 02:20:24;;;;;;;0.40;0.30;;;;;;;22.54;37.21;99890.94;5003426;27;96791;-78
2023/04/24 02:22:52;;;;;;;0.30;0.30;;;;;;;22.55;37.53;99900.00;5014436;27;96774;-78
2023/04/24 02:25:18;;;;;;;0.50;0.40;;;;;;;22.54;37.55;99893.66;5024023;27;99800;-77
2023/04/24 02:27:45;;;;;;;0.47;0.43;;;;;;;22.55;37.72;99894.50;5016293;27;99750;-78
2023/04/24 02:30:12;;;;;;;0.47;0.45;;;;;;;22.54;37.31;99896.41;5023916;27;97101;-77
2023/04/24 02:32:38;;;;;;;0.50;0.40;;;;;;;22.55;37.51;99892.63;5026373;27;96757;-78
2023/04/24 02:35:06;;;;;;;0.85;0.50;;;;;;;22.55;37.63;99900.84;5016457;27;99192;-77
2023/04/24 02:37:32;;;;;;;0.35;0.35;;;;;;;22.55;37.73;99903.56;5019526;27;99708;-77
2023/04/24 02:39:59;;;;;;;0.52;0.40;;;;;;;22.55;37.49;99897.25;5021030;27;96805;-78
2023/04/24 02:42:26;;;;;;;0.63;0.35;;;;;;;22.54;37.33;99896.41;5022343;27;97352;-78
2023/04/24 02:44:52;;;;;;;0.50;0.40;;;;;;;22.55;37.51;99898.09;5018720;27;96877;-77
2023/04/24 02:47:19;;;;;;;0.40;0.40;;;;;;;22.55;37.39;99903.56;5015336;27;96917;-77
2023/04/24 02:49:48;;;;;;;0.30;0.30;;;;;;;22.54;37.45;99893.66;5018742;27;96788;-78
2023/04/24 02:52:15;;;;;;;0.68;0.50;;;;;;;22.55;37.53;99897.25;5000346;27;96658;-77
2023/04/24 02:54:42;;;;;;;0.40;0.32;;;;;;;22.54;37.67;99896.41;5016782;27;96741;-77
2023/04/24 02:57:08;;;;;;;0.35;0.30;;;;;;;22.55;37.47;99903.56;5010772;27;98680;-78
2023/04/24 02:59:40;;;;;;;0.25;0.20;;;;;;;22.55;37.28;99900.84;5018467;27;96874;-78
2023/04/24 03:02:07;;;;;;;0.57;0.40;;;;;;;22.55;37.52;99900.00;5017388;27;96687;-77
2023/04/24 03:04:33;;;;;;;0.30;0.30;;;;;;;22.55;37.41;99894.50;5010507;27;97524;-78
2023/04/24 03:07:01;;;;;;;0.40;0.40;;;;;;;22.55;37.57;99894.50;5017706;27;100074;-78
2023/04/24 03:09:27;;;;;;;0.47;0.40;;;;;;;22.55;37.76;99892.63;5024287;27;96742;-77
2023/04/24 03:11:54;;;;;;;0.40;0.40;;;;;;;22.55;37.41;99894.50;5019390;27;96686;-77
2023/04/24 03:14:20;;;;;;;0.50;0.40;;;;;;;22.55;37.28;99891.78;5021338;27;97565;-77
2023/04/24 03:16:47;;;;;;;0.50;0.45;;;;;;;22.55;37.38;99903.56;5018965;27;97379;-77
2023/04/24 03:19:13;;;;;;;0.52;0.40;;;;;;;22.55;37.74;99900.00;5022246;27;96744;-78
2023/04/24 03:21:54;;;;;;;0.40;0.32;;;;;;;22.54;37.59;99906.50;5017683;27;96772;-77
2023/04/24 03:24:21;;;;;;;0.55;0.32;;;;;;;22.55;37.71;99898.09;5022771;27;97211;-78
2023/04/24 03:26:48;;;;;;;0.40;0.30;;;;;;;22.55;37.52;99900.00;5020245;27;98568;-77
2023/04/24 03:29:28;;;;;;;0.40;0.32;;;;;;;22.55;37.31;99900.00;5017248;27;97065;-77
2023/04/24 03:31:56;;;;;;;0.50;0.40;;;;;;;22.55;37.34;99909.03;5021857;27;98063;-77
2023/04/24 03:34:23;;;;;;;0.40;0.30;;;;;;;22.55;37.43;99906.31;5021298;27;97810;-78
2023/04/24 03:36:49;;;;;;;0.50;0.38;;;;;;;22.55;37.47;99910.94;5003826;27;99786;-77
2023/04/24 03:39:16;;;;;;;0.45;0.30;;;;;;;22.54;37.34;99909.25;5014851;27;96750;-77
2023/04/24 03:41:50;;;;;;;0.30;0.30;;;;;;;22.55;37.64;99910.94;5017563;27;96791;-77
2023/04/24 03:44:21;;;;;;;0.50;0.47;;;;;;;22.55;37.80;99902.72;5014033;27;99626;-77
2023/04/24 03:46:48;;;;;;;0.38;0.30;;;;;;;22.55;37.70;99903.56;5017906;27;99391;-77
2023/04/24 03:49:14;;;;;;;0.40;0.40;;;;;;;22.55;37.72;99905.47;5018826;27;96975;-77
2023/04/24 03:51:43;;;;;;;0.32;0.30;;;;;;;22.54;37.58;99901.88;5022603;27;97349;-77
2023/04/24 03:54:24;;;;;;;0.38;0.32;;;;;;;22.55;37.40;99905.47;5019784;27;99853;-77
2023/04/24 03:56:52;;;;;;;0.60;0.50;;;;;;;22.55;37.70;99900.00;5017117;27;99072;-78
2023/04/24 03:59:19;;;;;;;0.40;0.40;;;;;;;22.55;37.46;99900.00;5020691;27;96816;-77
2023/04/24 04:01:56;;;;;;;0.40;0.40;;;;;;;22.54;37.33;99899.16;5020843;27;96966;-77
2023/04/24 04:04:22;;;;;;;0.60;0.40;;;;;;;22.55;37.33;99905.47;5024138;27;98030;-77
2023/04/24 04:06:49;;;;;;;0.77;0.50;;;;;;;22.55;37.49;99900.84;5018585;27;98691;-77
2023/04/24 04:09:16;;;;;;;0.50;0.40;;;;;;;22.55;37.56;99905.47;5019018;27;97310;-77
2023/04/24 04:11:44;;;;;;;0.45;0.40;;;;;;;22.54;37.55;99901.88;5018314;27;96900;-78
2023/04/24 04:14:11;;;;;;;0.68;0.35;;;;;;;22.55;37.69;99906.31;5023562;27;96769;-77
2023/04/24 04:16:40;;;;;;;1.17;0.30;;;;;;;22.55;37.47;99900.00;5024978;27;98910;-77
2023/04/24 04:19:07;;;;;;;0.40;0.40;;;;;;;22.55;37.39;99903.56;5021875;27;96688;-78
2023/04/24 04:21:34;;;;;;;0.82;0.40;;;;;;;22.55;37.39;99905.47;5026459;27;96844;-77
2023/04/24 04:24:20;;;;;;;0.77;0.50;;;;;;;22.54;37.56;99904.63;5022236;27;99620;-77
2023/04/24 04:26:47;;;;;;;0.60;0.40;;;;;;;22.54;37.59;99903.78;5028814;27;97743;-77
2023/04/24 04:29:23;;;;;;;0.30;0.30;;;;;;;22.53;37.35;99900.19;5024211;27;96806;-77
2023/04/24 04:31:50;;;;;;;0.50;0.40;;;;;;;22.54;37.34;99901.88;5028007;27;96721;-77
2023/04/24 04:34:18;;;;;;;0.50;0.40;;;;;;;22.54;37.46;99901.88;5018345;27;99179;-77
2023/04/24 04:36:46;;;;;;;0.35;0.30;;;;;;;22.55;37.43;99903.56;5022647;27;100139;-77
2023/04/24 04:39:30;;;;;;;0.63;0.40;;;;;;;22.55;37.44;99905.47;5020864;27;96860;-77
2023/04/24 04:42:03;;;;;;;0.40;0.40;;;;;;;22.54;37.57;99907.34;5009150;27;97072;-78
2023/04/24 04:44:36;;;;;;;0.35;0.22;;;;;;;22.54;37.55;99904.63;5027287;27;97653;-77
2023/04/24 04:47:08;;;;;;;0.50;0.40;;;;;;;22.54;37.43;99907.34;5028362;27;97159;-77
2023/04/24 04:49:40;;;;;;;0.60;0.40;;;;;;;22.55;37.56;99910.94;5025422;27;96775;-77
2023/04/24 04:52:16;;;;;;;0.30;0.30;;;;;;;22.55;37.70;99913.66;5037128;27;96800;-77
2023/04/24 04:54:46;;;;;;;0.43;0.40;;;;;;;22.55;37.52;99913.66;5027293;27;99801;-77
2023/04/24 04:57:13;;;;;;;0.30;0.30;;;;;;;22.55;37.58;99903.56;5008970;27;100035;-77
2023/04/24 04:59:40;;;;;;;0.60;0.38;;;;;;;22.56;37.50;99909.88;5017502;27;96998;-78
2023/04/24 05:02:13;;;;;;;0.30;0.30;;;;;;;22.56;37.67;99912.63;5023902;27;96975;-77
2023/04/24 05:04:40;;;;;;;0.43;0.40;;;;;;;22.55;37.20;99897.25;5021402;27;97999;-78
2023/04/24 05:07:07;;;;;;;0.30;0.30;;;;;;;22.55;37.37;99914.50;5005891;27;98575;-77
2023/04/24 05:09:37;;;;;;;0.45;0.38;;;;;;;22.56;37.54;99904.41;5024288;27;98979;-77
2023/04/24 05:12:05;;;;;;;0.60;0.50;;;;;;;22.56;37.44;99915.34;5024845;27;96945;-78
2023/04/24 05:14:37;;;;;;;0.40;0.30;;;;;;;22.57;37.68;99911.56;5020436;27;97153;-77
2023/04/24 05:17:04;;;;;;;0.50;0.40;;;;;;;22.57;37.54;99908.81;5022604;27;99218;-78
2023/04/24 05:19:35;;;;;;;0.40;0.30;;;;;;;22.57;37.42;99919.78;5024411;27;96750;-78
2023/04/24 05:22:04;;;;;;;0.40;0.30;;;;;;;22.57;37.49;99915.16;4999089;27;96720;-78
2023/04/24 05:24:33;;;;;;;0.43;0.35;;;;;;;22.58;37.24;99918.72;5001097;27;99782;-78
2023/04/24 05:27:20;;;;;;;0.50;0.30;;;;;;;22.56;37.26;99920.81;5011672;27;97257;-78
2023/04/24 05:29:48;;;;;;;0.50;0.40;;;;;;;22.56;37.50;99920.81;5005740;27;96868;-78
2023/04/24 05:32:14;;;;;;;0.30;0.30;;;;;;;22.57;37.62;99922.50;5022358;27;96828;-78
2023/04/24 05:34:41;;;;;;;0.50;0.30;;;;;;;22.58;37.58;99932.41;5010539;27;99967;-78
2023/04/24 05:37:09;;;;;;;0.70;0.50;;;;;;;22.57;37.32;99931.56;5001679;27;102596;-78
2023/04/24 05:39:36;;;;;;;0.50;0.38;;;;;;;22.57;37.70;99927.97;4998983;27;96785;-78
2023/04/24 05:42:04;;;;;;;0.45;0.43;;;;;;;22.57;37.70;99937.03;5016738;27;96822;-78
2023/04/24 05:44:31;;;;;;;0.50;0.40;;;;;;;22.58;37.41;99940.63;5021469;27;100635;-78
2023/04/24 05:46:58;;;;;;;0.57;0.30;;;;;;;22.58;37.75;99940.63;5009690;27;99491;-78
2023/04/24 05:49:25;;;;;;;0.40;0.30;;;;;;;22.57;37.31;99945.25;5021276;27;97469;-78
2023/04/24 05:51:52;;;;;;;0.52;0.40;;;;;;;22.58;37.51;99946.94;5024054;27;96665;-78
2023/04/24 05:54:19;;;;;;;0.68;0.40;;;;;;;22.58;37.64;99946.09;5005535;27;99547;-79
2023/04/24 05:56:46;;;;;;;0.40;0.30;;;;;;;22.58;37.52;99951.56;5018375;27;97293;-78
2023/04/24 05:59:20;;;;;;;0.35;0.28;;;;;;;22.58;37.62;99948.81;5001912;27;97580;-78
2023/04/24 06:01:47;;;;;;;0.60;0.40;;;;;;;22.58;37.39;99955.13;5019532;27;96930;-78
2023/04/24 06:04:18;;;;;;;0.75;0.40;;;;;;;22.58;37.37;99959.78;5010269;27;100595;-77
2023/04/24 06:07:55;;;;;;;0.38;0.30;;;;;;;22.58;37.37;99962.50;5025701;27;97148;-78
2023/04/24 06:10:31;;;;;;;0.50;0.30;;;;;;;22.55;37.49;99969.25;5017578;27;96881;-78
2023/04/24 06:13:00;;;;;;;0.30;0.30;;;;;;;22.56;37.62;99970.94;5021012;27;96913;-78
2023/04/24 06:15:30;;;;;;;0.40;0.35;;;;;;;22.57;37.34;99974.50;5015999;27;99776;-78
2023/04/24 06:18:03;;;;;;;0.38;0.30;;;;;;;22.56;37.21;99964.59;5021142;27;97709;-78
2023/04/24 06:20:30;;;;;;;0.40;0.30;;;;;;;22.57;37.32;99967.13;5010624;27;96707;-78
2023/04/24 06:22:57;;;;;;;0.30;0.20;;;;;;;22.58;37.61;99973.47;5022300;27;96946;-78
2023/04/24 06:25:27;;;;;;;0.35;0.20;;;;;;;22.59;37.49;99975.13;5020011;27;96947;-79
2023/04/24 06:27:55;;;;;;;0.30;0.30;;;;;;;22.58;37.45;99982.50;5024557;27;97217;-78
2023/04/24 06:30:22;;;;;;;0.50;0.40;;;;;;;22.58;37.53;99993.47;5025979;27;97024;-78
2023/04/24 06:32:49;;;;;;;0.30;0.30;;;;;;;22.59;37.49;99988.81;5016963;27;96964;-78
2023/04/24 06:35:15;;;;;;;0.43;0.40;;;;;;;22.58;37.43;99990.72;5006150;27;99536;-79
2023/04/24 06:37:43;;;;;;;0.30;0.28;;;;;;;22.58;37.32;100001.66;5018873;27;97210;-78
2023/04/24 06:40:10;;;;;;;0.80;0.45;;;;;;;22.59;37.42;99991.56;5017708;27;96857;-78
2023/04/24 06:42:37;;;;;;;1.00;0.40;;;;;;;22.58;37.61;99998.09;5026538;27;96636;-78
2023/04/24 06:45:07;;;;;;;0.40;0.30;;;;;;;22.59;37.60;100005.25;5016117;27;99414;-76
2023/04/24 06:47:34;;;;;;;0.40;0.30;;;;;;;22.58;37.55;100014.50;5015729;27;98801;-78
2023/04/24 06:50:00;;;;;;;0.40;0.30;;;;;;;22.58;37.42;100007.13;5018972;27;96799;-78
2023/04/24 06:52:27;;;;;;;0.45;0.20;;;;;;;22.60;37.23;100028.81;5016030;27;96825;-76
2023/04/24 06:55:01;;;;;;;0.47;0.30;;;;;;;22.61;37.43;100034.09;5011236;28;97204;-77
2023/04/24 06:57:27;;;;;;;0.38;0.30;;;;;;;22.58;37.29;100039.97;5012495;28;96800;-77
2023/04/24 06:59:54;;;;;;;0.40;0.40;;;;;;;22.59;37.50;100044.41;5024379;28;97142;-78
2023/04/24 07:02:20;;;;;;;0.30;0.25;;;;;;;22.58;37.25;100052.81;5000630;28;97944;-77
2023/04/24 07:04:47;;;;;;;0.40;0.30;;;;;;;22.59;37.44;100060.81;5013408;28;99682;-77
2023/04/24 07:07:15;;;;;;;0.40;0.30;;;;;;;22.59;37.27;100065.44;5024643;28;97832;-77
2023/04/24 07:09:42;;;;;;;0.38;0.30;;;;;;;22.58;37.50;100066.50;5012576;27;97207;-77
2023/04/24 07:12:13;;;;;;;0.50;0.30;;;;;;;22.58;37.21;100077.44;5000553;28;96925;-78
2023/04/24 07:14:39;;;;;;;0.50;0.38;;;;;;;22.57;37.54;100076.59;5013350;28;99396;-77
2023/04/24 07:17:06;;;;;;;0.50;0.40;;;;;;;22.57;37.58;100089.44;5019308;28;96902;-77
2023/04/24 07:19:35;;;;;;;0.70;0.32;;;;;;;22.56;37.57;100094.06;5016416;28;96898;-77
2023/04/24 07:22:03;;;;;;;0.40;0.30;;;;;;;22.56;37.42;100094.06;5011558;28;96870;-77
2023/04/24 07:24:32;;;;;;;0.65;0.20;;;;;;;22.56;37.32;100102.28;5023810;28;96812;-77
2023/04/24 07:27:00;;;;;;;0.40;0.30;;;;;;;22.55;37.37;100103.34;5010358;28;97441;-78
2023/04/24 07:29:27;;;;;;;0.30;0.22;;;;;;;22.55;37.39;100099.75;5010574;28;96773;-77
2023/04/24 07:31:53;;;;;;;0.22;0.20;;;;;;;22.55;37.28;100118.91;5010109;28;97136;-78
2023/04/24 07:34:20;;;;;;;0.40;0.30;;;;;;;22.54;37.26;100112.59;5010841;28;96778;-77
2023/04/24 07:36:47;;;;;;;0.40;0.30;;;;;;;22.55;37.47;100124.38;5010563;28;97462;-78
2023/04/24 07:39:13;;;;;;;0.28;0.22;;;;;;;22.54;37.33;100129.00;5010927;28;96479;-78
2023/04/24 07:41:40;;;;;;;0.30;0.30;;;;;;;22.54;37.28;100142.69;4993005;28;97404;-77
2023/04/24 07:44:06;;;;;;;0.20;0.20;;;;;;;22.53;37.33;100151.94;5011005;28;97729;-78
2023/04/24 07:46:33;;;;;;;0.35;0.35;;;;;;;22.53;37.59;100160.16;5009001;28;96699;-78
2023/04/24 07:49:01;;;;;;;0.30;0.30;;;;;;;22.53;37.49;100165.63;5009340;28;96727;-77
2023/04/24 07:51:39;;;;;;;0.30;0.22;;;;;;;22.52;37.34;100178.47;5023411;28;96677;-78
2023/04/24 07:54:06;;;;;;;0.38;0.30;;;;;;;22.52;37.53;100180.38;5021745;28;97645;-78
2023/04/24 07:56:33;;;;;;;0.30;0.30;;;;;;;22.52;37.38;100200.38;5008591;28;99453;-77
2023/04/24 07:59:01;;;;;;;0.40;0.40;;;;;;;22.51;37.44;100192.34;5014817;28;96846;-78
2023/04/24 08:01:28;;;;;;;0.40;0.38;;;;;;;22.51;37.53;100211.50;5016755;27;96842;-78
2023/04/24 08:03:55;;;;;;;0.40;0.35;;;;;;;22.51;37.69;100216.97;5016619;28;97693;-77
2023/04/24 08:06:22;;;;;;;0.20;0.20;;;;;;;22.52;37.54;100230.47;5014161;28;97873;-77
2023/04/24 08:08:49;;;;;;;0.30;0.30;;;;;;;22.52;37.47;100237.84;5011238;28;97930;-77
2023/04/24 08:11:16;;;;;;;0.43;0.35;;;;;;;22.51;37.58;100242.47;5010435;28;96865;-78
2023/04/24 08:13:42;;;;;;;0.32;0.30;;;;;;;22.51;37.46;100247.94;5009473;28;97740;-77
2023/04/24 08:16:09;;;;;;;0.40;0.30;;;;;;;22.50;37.64;100259.94;5023194;28;97894;-78
2023/04/24 08:18:36;;;;;;;0.85;0.30;;;;;;;22.51;37.52;100260.78;5031619;27;97221;-77
2023/04/24 08:21:03;;;;;;;0.22;0.20;;;;;;;22.51;37.58;100264.34;5017290;27;97294;-78
2023/04/24 08:23:29;;;;;;;0.40;0.30;;;;;;;22.51;37.60;100279.94;5022835;28;97851;-78
2023/04/24 08:25:57;;;;;;;0.40;0.30;;;;;;;22.52;37.29;100295.31;5022214;28;100575;-79
2023/04/24 08:28:23;;;;;;;0.40;0.30;;;;;;;22.51;37.32;100293.59;5010951;28;96755;-78
2023/04/24 08:30:54;;;;;;;0.30;0.22;;;;;;;22.51;37.48;100299.09;5011504;28;97194;-78
2023/04/24 08:33:22;;;;;;;0.32;0.20;;;;;;;22.51;37.38;100307.28;5020337;28;96795;-78
2023/04/24 08:35:49;;;;;;;0.40;0.30;;;;;;;22.50;37.33;100314.66;5023720;28;96823;-79
2023/04/24 08:38:16;;;;;;;0.38;0.22;;;;;;;22.50;37.48;100320.13;5009097;28;96712;-79
2023/04/24 08:40:45;;;;;;;0.22;0.20;;;;;;;22.50;37.58;100325.59;5021586;28;96908;-79
2023/04/24 08:43:13;;;;;;;0.28;0.22;;;;;;;22.50;37.16;100328.34;5008293;28;99757;-78
2023/04/24 08:45:40;;;;;;;0.28;0.20;;;;;;;22.49;37.45;100340.34;5007906;28;98293;-79
2023/04/24 08:48:07;;;;;;;0.40;0.30;;;;;;;22.51;37.55;100345.59;5010213;28;96992;-78
2023/04/24 08:50:52;;;;;;;0.50;0.40;;;;;;;22.50;37.54;100343.91;5010245;28;96788;-79
2023/04/24 08:53:19;;;;;;;0.60;0.35;;;;;;;22.49;37.71;100343.06;5009914;28;96692;-79
2023/04/24 08:55:48;;;;;;;0.40;0.25;;;;;;;22.49;37.38;100354.00;5016759;28;97078;-78
2023/04/24 08:58:16;;;;;;;0.43;0.30;;;;;;;22.50;37.40;100352.13;4998549;28;97298;-78
2023/04/24 09:00:46;;;;;;;0.40;0.22;;;;;;;22.50;37.41;100354.84;5011654;28;97239;-79
2023/04/24 09:03:16;;;;;;;0.52;0.40;;;;;;;22.51;37.19;100373.81;5013190;28;99451;-78
2023/04/24 09:05:46;;;;;;;0.60;0.30;;;;;;;22.50;37.65;100372.13;5021425;28;98159;-78
2023/04/24 09:08:14;;;;;;;0.47;0.35;;;;;;;22.50;37.25;100371.28;5026561;28;96800;-78
2023/04/24 09:10:41;;;;;;;0.20;0.17;;;;;;;22.51;37.76;100381.19;5013011;28;97332;-79
2023/04/24 09:13:10;;;;;;;0.20;0.20;;;;;;;22.50;37.57;100382.22;5012945;28;98078;-79
2023/04/24 09:15:38;;;;;;;0.30;0.30;;;;;;;22.50;37.55;100395.91;5011711;28;99270;-78
2023/04/24 09:18:08;;;;;;;0.40;0.30;;;;;;;22.52;37.27;100396.56;5013263;28;97351;-78
2023/04/24 09:21:16;;;;;;;0.30;0.30;;;;;;;22.48;37.38;100401.56;4980889;28;96785;-78
2023/04/24 09:23:42;;;;;;;0.40;0.30;;;;;;;22.49;37.47;100407.91;5028498;28;97235;-79
2023/04/24 09:26:10;;;;;;;0.60;0.40;;;;;;;22.49;37.25;100416.94;5018465;28;97197;-78
2023/04/24 09:28:38;;;;;;;0.55;0.43;;;;;;;22.50;37.38;100420.53;5017444;28;96660;-78
2023/04/24 09:31:18;;;;;;;0.47;0.28;;;;;;;22.50;37.39;100424.13;5028827;27;97284;-78
2023/04/24 09:33:56;;;;;;;0.30;0.30;;;;;;;22.50;37.30;100434.22;5027541;28;97320;-78
2023/04/24 09:36:29;;;;;;;0.40;0.32;;;;;;;22.48;37.37;100448.09;5007870;28;98478;-78
2023/04/24 09:38:58;;;;;;;0.50;0.30;;;;;;;22.50;37.73;100440.53;5017249;28;96822;-79
2023/04/24 09:41:26;;;;;;;0.20;0.20;;;;;;;22.49;37.58;100444.31;5018066;28;96792;-76
2023/04/24 09:43:55;;;;;;;0.25;0.20;;;;;;;22.51;37.58;100447.72;5013798;27;99218;-78
2023/04/24 09:46:30;;;;;;;0.47;0.40;;;;;;;22.52;37.23;100459.50;5009785;28;98700;-78
2023/04/24 09:48:57;;;;;;;0.47;0.38;;;;;;;22.51;37.59;100466.00;5006603;28;96652;-78
2023/04/24 09:51:37;;;;;;;0.50;0.30;;;;;;;22.53;37.34;100466.66;5019097;28;97038;-78
2023/04/24 09:54:10;;;;;;;0.40;0.32;;;;;;;22.52;37.42;100463.09;5012962;27;97116;-78
2023/04/24 09:56:42;;;;;;;0.30;0.30;;;;;;;22.52;37.11;100473.19;5012017;28;97483;-78
2023/04/24 09:59:08;;;;;;;0.40;0.30;;;;;;;22.52;37.41;100478.66;5015423;28;96746;-78
2023/04/24 10:01:36;;;;;;;0.38;0.38;;;;;;;22.52;37.56;100489.59;5012871;28;97451;-77
2023/04/24 10:04:02;;;;;;;0.80;0.40;;;;;;;22.51;37.41;100496.97;5015869;28;96909;-77
2023/04/24 10:06:36;;;;;;;0.57;0.30;;;;;;;22.55;37.14;100502.03;5010151;28;97555;-77
2023/04/24 10:09:03;;;;;;;0.40;0.40;;;;;;;22.53;37.59;100504.97;5015847;28;96664;-77
2023/04/24 10:11:30;;;;;;;0.68;0.30;;;;;;;22.54;37.14;100508.56;5011508;28;97269;-77
2023/04/24 10:13:57;;;;;;;0.45;0.20;;;;;;;22.54;37.21;100508.56;5021469;28;96817;-77
2023/04/24 10:16:24;;;;;;;0.45;0.30;;;;;;;22.54;37.29;100506.69;5008664;28;99211;-77
2023/04/24 10:18:51;;;;;;;0.35;0.30;;;;;;;22.53;37.13;100518.66;5023011;27;96733;-77
2023/04/24 10:21:18;;;;;;;0.60;0.60;;;;;;;22.53;37.54;100515.94;5013874;28;96747;-77
2023/04/24 10:23:46;;;;;;;0.60;0.30;;;;;;;22.54;37.49;100519.50;5016894;27;97912;-77
2023/04/24 10:26:17;;;;;;;0.43;0.30;;;;;;;22.54;37.53;100527.72;5011433;28;97268;-78
2023/04/24 10:28:45;;;;;;;0.40;0.35;;;;;;;22.53;37.29;100526.88;5011528;28;96742;-77
2023/04/24 10:31:15;;;;;;;0.30;0.30;;;;;;;22.54;37.53;100531.31;5015508;28;97119;-77
2023/04/24 10:33:43;;;;;;;0.55;0.35;;;;;;;22.53;37.23;100537.81;5024573;28;96980;-77
2023/04/24 10:36:11;;;;;;;0.55;0.35;;;;;;;22.52;37.15;100538.88;5001080;28;97331;-77
2023/04/24 10:38:40;;;;;;;0.60;0.30;;;;;;;22.53;37.41;100540.56;5018933;28;96703;-77
2023/04/24 10:41:15;;;;;;;0.30;0.20;;;;;;;22.52;37.20;100542.44;5020397;28;96797;-77
2023/04/24 10:43:42;;;;;;;0.40;0.30;;;;;;;22.52;37.50;100544.34;5010970;28;98280;-77
2023/04/24 10:46:10;;;;;;;0.47;0.35;;;;;;;22.51;37.33;100542.66;5017829;28;98022;-77
2023/04/24 10:48:43;;;;;;;0.30;0.20;;;;;;;22.51;37.35;100550.84;5025129;28;97085;-77
2023/04/24 10:51:13;;;;;;;0.30;0.30;;;;;;;22.51;37.20;100550.84;5024917;28;96863;-77
2023/04/24 10:53:40;;;;;;;0.20;0.20;;;;;;;22.50;37.30;100552.75;5016602;28;99016;-78
2023/04/24 10:56:13;;;;;;;0.38;0.30;;;;;;;22.50;37.54;100558.22;5011080;28;97428;-78
2023/04/24 10:58:44;;;;;;;0.60;0.30;;;;;;;22.50;37.24;100557.38;5026195;28;96747;-76
2023/04/24 11:01:27;;;;;;;0.30;0.20;;;;;;;22.51;37.14;100564.53;5020111;28;97309;-78
2023/04/24 11:03:57;;;;;;;0.32;0.30;;;;;;;22.48;37.28;100576.72;5026107;28;100253;-78
2023/04/24 11:06:37;;;;;;;0.70;0.40;;;;;;;22.48;37.18;100568.50;5012536;28;97148;-78
2023/04/24 11:09:12;;;;;;;0.20;0.20;;;;;;;22.49;37.34;100574.81;5019952;28;96676;-78
2023/04/24 11:11:44;;;;;;;;;;;;;;;22.44;37.56;100580.03;5013832;28;97505;-78
2023/04/24 11:14:15;;;;;;;0.40;0.30;;;;;;;22.44;37.54;100575.41;5013534;28;98592;-78
2023/04/24 11:16:52;;;;;;;0.85;0.30;;;;;;;22.46;37.33;100591.63;5008134;28;100208;-78
2023/04/24 11:19:26;;;;;;;0.43;0.30;;;;;;;22.46;37.50;100580.69;5021680;27;96602;-78
2023/04/24 11:22:03;;;;;;;0.20;0.20;;;;;;;22.46;37.19;100587.00;5016629;28;96847;-78
2023/04/24 11:24:39;;;;;;;0.30;0.30;;;;;;;22.46;37.18;100589.75;5009533;28;97560;-77
2023/04/24 11:27:19;;;;;;;0.68;0.30;;;;;;;22.46;37.49;100594.38;4999046;28;99382;-78
2023/04/24 11:30:02;;;;;;;0.73;0.40;;;;;;;22.48;37.46;100603.22;5018657;28;96772;-77
2023/04/24 11:32:36;;;;;;;0.30;0.28;;;;;;;22.47;37.29;100607.88;5020758;28;96727;-76
2023/04/24 11:35:06;;;;;;;0.60;0.40;;;;;;;22.46;37.25;100622.59;5015680;28;96781;-77
2023/04/24 11:37:38;;;;;;;0.28;0.28;;;;;;;22.47;37.47;100598.81;5013018;28;97570;-77